sensor_id;sensor_type;location;lat;lon;timestamp;P1;durP1;ratioP1;P2;durP2;ratioP2
43554;SDS011;35085;40.398;-3.702;2023-02-01T00:01:18;25.60;;;10.10;;
43554;SDS011;35085;40.398;-3.702;2023-02-01T00:11:27;25.77;;;10.10;;
43554;SDS011;35085;40.398;-3.702;2023-02-01T00:21:36;24.75;;;9.70;;
43554;SDS011;35085;40.398;-3.702;2023-02-01T00:31:45;19.93;;;9.13;;
43554;SDS011;35085;40.398;-3.702;2023-02-01T00:41:54;24.33;;;9.30;;
43554;SDS011;35085;40.398;-3.702;2023-02-01T01:02:06;21.13;;;9.27;;
43554;SDS011;35085;40.398;-3.702;2023-02-01T01:12:15;22.73;;;9.13;;
43554;SDS011;35085;40.398;-3.702;2023-02-01T01:22:24;22.00;;;9.00;;
43554;SDS011;35085;40.398;-3.702;2023-02-01T01:32:33;18.15;;;9.23;;
43554;SDS011;35085;40.398;-3.702;2023-02-01T01:42:43;21.23;;;8.70;;
43554;SDS011;35085;40.398;-3.702;2023-02-01T01:52:54;18.25;;;8.60;;
43554;SDS011;35085;40.398;-3.702;2023-02-01T02:03:01;21.10;;;8.05;;
43554;SDS011;35085;40.398;-3.702;2023-02-01T02:13:08;20.65;;;9.07;;
43554;SDS011;35085;40.398;-3.702;2023-02-01T02:43:37;15.65;;;7.90;;
43554;SDS011;35085;40.398;-3.702;2023-02-01T02:54:33;18.83;;;8.02;;
43554;SDS011;35085;40.398;-3.702;2023-02-01T03:05:11;21.65;;;8.48;;
43554;SDS011;35085;40.398;-3.702;2023-02-01T03:26:16;22.88;;;8.25;;
43554;SDS011;35085;40.398;-3.702;2023-02-01T03:36:30;16.17;;;7.05;;
43554;SDS011;35085;40.398;-3.702;2023-02-01T03:47:15;16.70;;;7.38;;
43554;SDS011;35085;40.398;-3.702;2023-02-01T03:57:35;17.55;;;7.25;;
43554;SDS011;35085;40.398;-3.702;2023-02-01T04:07:48;19.52;;;7.65;;
43554;SDS011;35085;40.398;-3.702;2023-02-01T04:17:59;16.02;;;7.10;;
43554;SDS011;35085;40.398;-3.702;2023-02-01T04:28:09;13.85;;;6.63;;
43554;SDS011;35085;40.398;-3.702;2023-02-01T04:48:39;14.95;;;6.47;;
43554;SDS011;35085;40.398;-3.702;2023-02-01T04:58:50;13.10;;;6.05;;
43554;SDS011;35085;40.398;-3.702;2023-02-01T05:08:52;16.83;;;6.97;;
43554;SDS011;35085;40.398;-3.702;2023-02-01T05:19:01;12.93;;;6.47;;
43554;SDS011;35085;40.398;-3.702;2023-02-01T05:29:10;15.33;;;6.00;;
43554;SDS011;35085;40.398;-3.702;2023-02-01T05:39:20;13.63;;;6.68;;
43554;SDS011;35085;40.398;-3.702;2023-02-01T05:49:28;14.13;;;6.13;;
43554;SDS011;35085;40.398;-3.702;2023-02-01T05:59:37;12.60;;;5.80;;
43554;SDS011;35085;40.398;-3.702;2023-02-01T06:09:45;12.88;;;5.07;;
43554;SDS011;35085;40.398;-3.702;2023-02-01T06:19:55;11.77;;;5.45;;
43554;SDS011;35085;40.398;-3.702;2023-02-01T06:30:05;13.30;;;5.97;;
43554;SDS011;35085;40.398;-3.702;2023-02-01T06:40:12;13.68;;;5.78;;
43554;SDS011;35085;40.398;-3.702;2023-02-01T06:50:20;14.13;;;6.13;;
43554;SDS011;35085;40.398;-3.702;2023-02-01T07:00:29;15.10;;;6.27;;
43554;SDS011;35085;40.398;-3.702;2023-02-01T07:10:38;19.63;;;6.67;;
43554;SDS011;35085;40.398;-3.702;2023-02-01T07:20:49;13.07;;;6.22;;
43554;SDS011;35085;40.398;-3.702;2023-02-01T07:31:06;20.83;;;6.57;;
43554;SDS011;35085;40.398;-3.702;2023-02-01T07:41:09;14.38;;;5.80;;
43554;SDS011;35085;40.398;-3.702;2023-02-01T07:51:18;14.70;;;6.25;;
43554;SDS011;35085;40.398;-3.702;2023-02-01T08:01:28;20.90;;;5.77;;
43554;SDS011;35085;40.398;-3.702;2023-02-01T08:11:37;18.23;;;6.55;;
43554;SDS011;35085;40.398;-3.702;2023-02-01T08:21:46;14.70;;;6.80;;
43554;SDS011;35085;40.398;-3.702;2023-02-01T08:31:56;15.13;;;5.53;;
43554;SDS011;35085;40.398;-3.702;2023-02-01T08:42:05;9.60;;;5.07;;
43554;SDS011;35085;40.398;-3.702;2023-02-01T08:52:26;9.30;;;4.38;;
43554;SDS011;35085;40.398;-3.702;2023-02-01T09:02:35;9.43;;;4.32;;
43554;SDS011;35085;40.398;-3.702;2023-02-01T09:12:44;7.50;;;3.67;;
43554;SDS011;35085;40.398;-3.702;2023-02-01T09:22:54;6.43;;;2.77;;
43554;SDS011;35085;40.398;-3.702;2023-02-01T09:33:03;7.30;;;2.20;;
43554;SDS011;35085;40.398;-3.702;2023-02-01T09:43:21;3.27;;;1.70;;
43554;SDS011;35085;40.398;-3.702;2023-02-01T09:53:31;4.53;;;1.90;;
43554;SDS011;35085;40.398;-3.702;2023-02-01T10:03:36;5.32;;;2.20;;
43554;SDS011;35085;40.398;-3.702;2023-02-01T10:23:58;2.83;;;1.58;;
43554;SDS011;35085;40.398;-3.702;2023-02-01T10:34:18;3.63;;;2.10;;
43554;SDS011;35085;40.398;-3.702;2023-02-01T10:44:23;8.18;;;2.67;;
43554;SDS011;35085;40.398;-3.702;2023-02-01T10:54:37;5.65;;;2.25;;
43554;SDS011;35085;40.398;-3.702;2023-02-01T11:04:40;4.85;;;2.67;;
43554;SDS011;35085;40.398;-3.702;2023-02-01T11:14:42;4.82;;;2.30;;
43554;SDS011;35085;40.398;-3.702;2023-02-01T11:24:52;6.77;;;2.90;;
43554;SDS011;35085;40.398;-3.702;2023-02-01T11:35:04;6.35;;;2.90;;
43554;SDS011;35085;40.398;-3.702;2023-02-01T11:45:15;4.55;;;2.55;;
43554;SDS011;35085;40.398;-3.702;2023-02-01T12:05:41;7.43;;;4.18;;
43554;SDS011;35085;40.398;-3.702;2023-02-01T12:16:02;4.40;;;2.47;;
43554;SDS011;35085;40.398;-3.702;2023-02-01T12:36:23;11.00;;;6.07;;
43554;SDS011;35085;40.398;-3.702;2023-02-01T12:46:30;8.68;;;3.70;;
43554;SDS011;35085;40.398;-3.702;2023-02-01T12:56:51;16.00;;;7.90;;
43554;SDS011;35085;40.398;-3.702;2023-02-01T13:07:16;11.88;;;4.43;;
43554;SDS011;35085;40.398;-3.702;2023-02-01T13:17:28;8.48;;;3.10;;
43554;SDS011;35085;40.398;-3.702;2023-02-01T13:27:55;4.07;;;2.17;;
43554;SDS011;35085;40.398;-3.702;2023-02-01T13:38:36;10.80;;;3.45;;
43554;SDS011;35085;40.398;-3.702;2023-02-01T13:48:56;6.28;;;3.33;;
43554;SDS011;35085;40.398;-3.702;2023-02-01T13:59:37;20.25;;;6.15;;
43554;SDS011;35085;40.398;-3.702;2023-02-01T14:09:50;7.93;;;4.18;;
43554;SDS011;35085;40.398;-3.702;2023-02-01T14:20:33;4.63;;;2.50;;
43554;SDS011;35085;40.398;-3.702;2023-02-01T14:30:26;8.25;;;3.50;;
43554;SDS011;35085;40.398;-3.702;2023-02-01T14:40:35;9.95;;;2.88;;
43554;SDS011;35085;40.398;-3.702;2023-02-01T14:50:46;63.30;;;7.77;;
43554;SDS011;35085;40.398;-3.702;2023-02-01T15:00:56;8.50;;;3.65;;
43554;SDS011;35085;40.398;-3.702;2023-02-01T15:11:03;11.10;;;3.20;;
43554;SDS011;35085;40.398;-3.702;2023-02-01T15:21:17;6.30;;;2.50;;
43554;SDS011;35085;40.398;-3.702;2023-02-01T15:41:28;7.35;;;3.10;;
43554;SDS011;35085;40.398;-3.702;2023-02-01T15:51:35;8.85;;;3.20;;
43554;SDS011;35085;40.398;-3.702;2023-02-01T16:01:37;8.70;;;4.07;;
43554;SDS011;35085;40.398;-3.702;2023-02-01T16:11:59;7.57;;;3.38;;
43554;SDS011;35085;40.398;-3.702;2023-02-01T16:22:08;7.38;;;3.35;;
43554;SDS011;35085;40.398;-3.702;2023-02-01T16:32:17;8.60;;;4.22;;
43554;SDS011;35085;40.398;-3.702;2023-02-01T16:42:28;10.90;;;3.53;;
43554;SDS011;35085;40.398;-3.702;2023-02-01T16:52:35;15.23;;;5.47;;
43554;SDS011;35085;40.398;-3.702;2023-02-01T17:02:44;12.00;;;5.55;;
43554;SDS011;35085;40.398;-3.702;2023-02-01T17:12:53;14.52;;;6.03;;
43554;SDS011;35085;40.398;-3.702;2023-02-01T17:23:02;14.32;;;5.63;;
43554;SDS011;35085;40.398;-3.702;2023-02-01T17:33:11;15.80;;;5.55;;
43554;SDS011;35085;40.398;-3.702;2023-02-01T17:43:25;14.68;;;7.13;;
43554;SDS011;35085;40.398;-3.702;2023-02-01T17:53:33;16.85;;;6.53;;
43554;SDS011;35085;40.398;-3.702;2023-02-01T18:03:42;22.85;;;10.02;;
43554;SDS011;35085;40.398;-3.702;2023-02-01T18:13:44;19.23;;;7.28;;
43554;SDS011;35085;40.398;-3.702;2023-02-01T18:23:54;18.53;;;7.60;;
43554;SDS011;35085;40.398;-3.702;2023-02-01T18:34:02;19.35;;;8.50;;
43554;SDS011;35085;40.398;-3.702;2023-02-01T18:44:12;24.10;;;9.52;;
43554;SDS011;35085;40.398;-3.702;2023-02-01T18:54:18;26.67;;;11.00;;
43554;SDS011;35085;40.398;-3.702;2023-02-01T19:04:27;27.00;;;10.45;;
43554;SDS011;35085;40.398;-3.702;2023-02-01T19:14:36;37.67;;;10.97;;
43554;SDS011;35085;40.398;-3.702;2023-02-01T19:24:45;25.60;;;10.40;;
43554;SDS011;35085;40.398;-3.702;2023-02-01T19:34:53;27.20;;;10.20;;
43554;SDS011;35085;40.398;-3.702;2023-02-01T19:45:02;26.60;;;10.52;;
43554;SDS011;35085;40.398;-3.702;2023-02-01T19:55:11;31.98;;;12.05;;
43554;SDS011;35085;40.398;-3.702;2023-02-01T20:05:20;29.98;;;11.10;;
43554;SDS011;35085;40.398;-3.702;2023-02-01T20:15:27;17.02;;;6.95;;
43554;SDS011;35085;40.398;-3.702;2023-02-01T20:25:36;13.75;;;4.82;;
43554;SDS011;35085;40.398;-3.702;2023-02-01T20:35:45;8.13;;;4.47;;
43554;SDS011;35085;40.398;-3.702;2023-02-01T20:45:48;10.40;;;3.97;;
43554;SDS011;35085;40.398;-3.702;2023-02-01T20:55:56;10.20;;;3.22;;
43554;SDS011;35085;40.398;-3.702;2023-02-01T21:06:05;8.02;;;3.25;;
43554;SDS011;35085;40.398;-3.702;2023-02-01T21:16:15;7.13;;;3.20;;
43554;SDS011;35085;40.398;-3.702;2023-02-01T21:26:25;6.45;;;3.00;;
43554;SDS011;35085;40.398;-3.702;2023-02-01T21:36:34;26.27;;;8.70;;
43554;SDS011;35085;40.398;-3.702;2023-02-01T21:46:43;10.83;;;4.20;;
43554;SDS011;35085;40.398;-3.702;2023-02-01T21:56:49;13.35;;;3.47;;
43554;SDS011;35085;40.398;-3.702;2023-02-01T22:06:57;8.80;;;3.45;;
43554;SDS011;35085;40.398;-3.702;2023-02-01T22:17:06;9.20;;;4.03;;
43554;SDS011;35085;40.398;-3.702;2023-02-01T22:27:15;12.65;;;5.25;;
43554;SDS011;35085;40.398;-3.702;2023-02-01T22:37:23;16.15;;;7.05;;
43554;SDS011;35085;40.398;-3.702;2023-02-01T22:47:32;11.33;;;4.70;;
43554;SDS011;35085;40.398;-3.702;2023-02-01T22:57:41;9.63;;;3.90;;
43554;SDS011;35085;40.398;-3.702;2023-02-01T23:07:47;10.52;;;4.15;;
43554;SDS011;35085;40.398;-3.702;2023-02-01T23:17:50;9.35;;;4.00;;
43554;SDS011;35085;40.398;-3.702;2023-02-01T23:27:59;9.85;;;3.67;;
43554;SDS011;35085;40.398;-3.702;2023-02-01T23:38:08;8.43;;;3.67;;
43554;SDS011;35085;40.398;-3.702;2023-02-01T23:48:17;6.73;;;3.60;;
43554;SDS011;35085;40.398;-3.702;2023-02-01T23:58:27;8.80;;;3.97;;
